createdAt,value
2022-12-27T00:05:11.723Z,9.52
2022-12-27T00:15:14.862Z,9.14
2022-12-27T00:25:19.464Z,8.73
2022-12-27T00:35:22.563Z,8.98
2022-12-27T00:45:27.089Z,9.32
2022-12-27T00:55:30.195Z,9.05
2022-12-27T01:05:37.551Z,9.05
2022-12-27T01:15:42.821Z,9.05
2022-12-27T01:25:47.284Z,8.74
2022-12-27T01:35:50.539Z,8.93
2022-12-27T01:45:55.194Z,8.31
2022-12-27T01:56:01.015Z,7.96
2022-12-27T02:06:07.348Z,8.41
2022-12-27T02:16:12.797Z,8.93
2022-12-27T02:26:38.693Z,9.09
2022-12-27T02:36:44.480Z,9.81
2022-12-27T02:47:06.172Z,10.11
2022-12-27T02:57:19.499Z,10.20
2022-12-27T03:07:28.191Z,10.43
2022-12-27T03:17:35.902Z,11.00
2022-12-27T03:27:39.874Z,12.09
2022-12-27T03:38:06.149Z,12.52
2022-12-27T03:48:11.991Z,12.65
2022-12-27T03:58:16.539Z,12.93
2022-12-27T04:08:37.675Z,13.03
2022-12-27T04:18:59.475Z,13.09
2022-12-27T04:29:19.952Z,13.07
2022-12-27T04:39:24.471Z,12.96
2022-12-27T04:49:45.355Z,13.18
2022-12-27T05:00:07.406Z,12.95
2022-12-27T05:10:28.163Z,13.06
2022-12-27T05:20:34.971Z,13.09
2022-12-27T05:30:39.680Z,13.02
2022-12-27T05:40:44.229Z,12.93
2022-12-27T05:50:47.299Z,13.11
2022-12-27T06:00:51.824Z,12.68
2022-12-27T06:11:03.163Z,12.63
2022-12-27T06:21:09.035Z,12.56
2022-12-27T06:31:12.394Z,12.55
2022-12-27T06:41:18.360Z,12.61
2022-12-27T06:51:22.170Z,12.43
2022-12-27T07:01:28.039Z,12.68
2022-12-27T07:11:33.399Z,12.76
2022-12-27T07:21:38.025Z,12.72
2022-12-27T07:31:42.426Z,13.10
2022-12-27T07:41:46.881Z,12.60
2022-12-27T07:51:49.963Z,12.20
2022-12-27T08:02:07.266Z,12.31
2022-12-27T08:12:10.979Z,11.64
2022-12-27T08:22:16.833Z,11.80
2022-12-27T08:32:19.987Z,11.87
2022-12-27T08:42:24.660Z,11.87
2022-12-27T08:52:28.261Z,11.78
2022-12-27T09:02:32.840Z,11.66
2022-12-27T09:12:36.159Z,11.51
2022-12-27T09:22:41.070Z,11.68
2022-12-27T09:32:44.130Z,11.80
2022-12-27T09:43:08.032Z,12.20
2022-12-27T09:53:19.989Z,11.72
2022-12-27T10:03:27.057Z,11.74
2022-12-27T10:13:42.437Z,10.85
2022-12-27T10:23:50.481Z,11.01
2022-12-27T10:33:53.843Z,11.26
2022-12-27T10:43:58.291Z,11.42
2022-12-27T10:54:02.759Z,11.36
2022-12-27T11:04:19.760Z,10.75
2022-12-27T11:14:23.746Z,10.93
2022-12-27T11:24:28.319Z,10.93
2022-12-27T11:34:34.103Z,10.53
2022-12-27T11:44:41.863Z,10.90
2022-12-27T11:55:11.853Z,10.73
2022-12-27T12:05:51.702Z,10.74
2022-12-27T12:16:24.993Z,11.19
2022-12-27T12:26:33.315Z,11.03
2022-12-27T12:36:53.061Z,10.77
2022-12-27T12:46:59.012Z,10.35
2022-12-27T12:57:20.995Z,10.61
2022-12-27T13:07:37.800Z,10.10
2022-12-27T13:17:50.595Z,10.46
2022-12-27T13:27:59.515Z,10.06
2022-12-27T13:38:18.700Z,10.24
2022-12-27T13:48:42.201Z,10.38
2022-12-27T13:59:03.119Z,9.87
2022-12-27T14:09:38.322Z,10.08
2022-12-27T14:19:55.472Z,9.89
2022-12-27T14:30:12.210Z,9.69
2022-12-27T14:40:44.843Z,9.97
2022-12-27T14:51:41.491Z,9.64
2022-12-27T15:01:51.629Z,9.24
2022-12-27T15:12:04.368Z,9.00
2022-12-27T15:22:13.639Z,8.38
2022-12-27T15:32:26.229Z,8.70
2022-12-27T15:42:44.846Z,8.40
2022-12-27T15:53:09.280Z,8.15
2022-12-27T16:03:34.615Z,8.23
2022-12-27T16:13:43.642Z,8.39
2022-12-27T16:23:53.404Z,8.39
2022-12-27T16:33:58.123Z,8.33
2022-12-27T16:44:16.905Z,8.23
2022-12-27T16:54:29.196Z,8.38
2022-12-27T17:04:58.223Z,8.23
2022-12-27T17:15:05.244Z,8.27
2022-12-27T17:25:15.816Z,8.24
2022-12-27T17:35:28.733Z,7.96
2022-12-27T17:45:41.454Z,8.15
2022-12-27T17:56:05.189Z,7.99
2022-12-27T18:06:10.197Z,8.24
2022-12-27T18:16:17.051Z,7.96
2022-12-27T18:26:23.111Z,7.73
2022-12-27T18:36:29.571Z,7.29
2022-12-27T18:46:37.978Z,7.08
2022-12-27T18:56:42.676Z,6.52
2022-12-27T19:06:52.759Z,6.29
2022-12-27T19:16:58.477Z,5.27
2022-12-27T19:27:16.632Z,5.05
2022-12-27T19:37:20.274Z,5.20
2022-12-27T19:47:25.017Z,4.77
2022-12-27T19:57:28.382Z,4.67
2022-12-27T20:07:34.046Z,4.27
2022-12-27T20:17:42.724Z,3.89
2022-12-27T20:27:49.303Z,3.49
2022-12-27T20:37:52.566Z,3.63
2022-12-27T20:48:01.089Z,3.57
2022-12-27T20:58:04.821Z,3.75
2022-12-27T21:08:09.510Z,3.60
2022-12-27T21:18:12.709Z,3.64
2022-12-27T21:28:18.014Z,3.40
2022-12-27T21:38:21.388Z,3.19
2022-12-27T21:48:26.070Z,2.95
2022-12-27T21:58:31.266Z,3.03
2022-12-27T22:08:35.674Z,3.43
2022-12-27T22:18:41.437Z,3.49
2022-12-27T22:28:46.213Z,4.12
2022-12-27T22:38:50.332Z,4.18
2022-12-27T22:48:56.180Z,4.61
2022-12-27T22:59:00.242Z,4.35
2022-12-27T23:09:09.724Z,4.00
2022-12-27T23:19:15.210Z,3.97
2022-12-27T23:29:20.100Z,3.72
2022-12-27T23:39:23.210Z,3.41
2022-12-27T23:49:27.731Z,3.11
2022-12-27T23:59:30.785Z,2.94
